createdAt,value
2023-05-13T00:00:29.828Z,3.60
2023-05-13T00:02:57.954Z,3.23
2023-05-13T00:05:28.074Z,3.30
2023-05-13T00:07:56.431Z,3.17
2023-05-13T00:10:25.737Z,3.27
2023-05-13T00:12:53.831Z,3.07
2023-05-13T00:15:23.414Z,3.43
2023-05-13T00:17:51.457Z,2.70
2023-05-13T00:20:19.970Z,3.43
2023-05-13T00:22:48.307Z,3.03
2023-05-13T00:25:16.423Z,2.73
2023-05-13T00:27:44.476Z,2.60
2023-05-13T00:30:13.041Z,3.43
2023-05-13T00:32:43.353Z,2.30
2023-05-13T00:35:11.413Z,0.97
2023-05-13T00:37:39.382Z,1.13
2023-05-13T00:40:17.332Z,1.20
2023-05-13T00:42:45.271Z,1.10
2023-05-13T00:45:13.254Z,1.40
2023-05-13T00:47:43.217Z,1.23
2023-05-13T00:50:12.996Z,1.33
2023-05-13T00:52:42.185Z,1.20
2023-05-13T00:55:11.460Z,1.57
2023-05-13T00:57:40.210Z,0.90
2023-05-13T01:00:10.562Z,1.10
2023-05-13T01:02:58.959Z,1.00
2023-05-13T01:05:32.844Z,1.90
2023-05-13T01:08:08.617Z,1.03
2023-05-13T01:10:43.901Z,1.20
2023-05-13T01:13:14.795Z,1.20
2023-05-13T01:15:49.137Z,1.70
2023-05-13T01:18:21.851Z,1.13
2023-05-13T01:20:50.029Z,1.27
2023-05-13T01:23:19.329Z,1.43
2023-05-13T01:25:47.887Z,1.00
2023-05-13T01:28:16.012Z,1.73
2023-05-13T01:30:44.088Z,0.70
2023-05-13T01:33:12.729Z,1.00
2023-05-13T01:35:40.828Z,1.17
2023-05-13T01:38:11.314Z,0.90
2023-05-13T01:40:41.526Z,1.10
2023-05-13T01:43:09.724Z,0.93
2023-05-13T01:45:38.288Z,0.93
2023-05-13T01:48:06.809Z,1.20
2023-05-13T01:50:35.020Z,0.77
2023-05-13T01:53:02.950Z,1.07
2023-05-13T01:55:31.094Z,0.97
2023-05-13T01:58:00.485Z,0.77
2023-05-13T02:00:28.659Z,6.03
2023-05-13T02:02:56.840Z,4.97
2023-05-13T02:05:24.839Z,5.40
2023-05-13T02:07:52.784Z,5.63
2023-05-13T02:10:20.904Z,6.23
2023-05-13T02:12:49.153Z,5.90
2023-05-13T02:15:18.633Z,6.60
2023-05-13T02:17:46.674Z,6.63
2023-05-13T02:20:16.003Z,6.20
2023-05-13T02:22:43.983Z,5.93
2023-05-13T02:25:12.290Z,5.70
2023-05-13T02:27:40.574Z,5.20
2023-05-13T02:30:09.480Z,4.90
2023-05-13T02:32:42.791Z,4.80
2023-05-13T02:35:11.817Z,4.30
2023-05-13T02:37:39.826Z,4.40
2023-05-13T02:40:09.101Z,4.17
2023-05-13T02:42:37.125Z,4.50
2023-05-13T02:45:05.475Z,4.50
2023-05-13T02:47:33.853Z,4.63
2023-05-13T02:50:05.892Z,5.07
2023-05-13T02:52:35.591Z,4.43
2023-05-13T02:55:03.699Z,4.30
2023-05-13T02:57:31.669Z,4.10
2023-05-13T02:59:59.775Z,3.87
2023-05-13T03:02:28.217Z,4.80
2023-05-13T03:04:56.638Z,4.07
2023-05-13T03:07:26.517Z,4.60
2023-05-13T03:09:54.449Z,4.50
2023-05-13T03:12:22.511Z,4.50
2023-05-13T03:14:50.495Z,4.50
2023-05-13T03:17:18.882Z,4.40
2023-05-13T03:19:46.879Z,4.20
2023-05-13T03:22:14.885Z,4.10
2023-05-13T03:24:44.550Z,4.47
2023-05-13T03:27:14.180Z,4.30
2023-05-13T03:29:45.327Z,4.00
2023-05-13T03:32:19.381Z,4.30
2023-05-13T03:34:53.156Z,4.50
2023-05-13T03:37:21.384Z,4.23
2023-05-13T03:39:51.021Z,3.80
2023-05-13T03:42:19.260Z,3.47
2023-05-13T03:44:49.855Z,3.07
2023-05-13T03:47:18.218Z,3.87
2023-05-13T03:49:48.115Z,3.20
2023-05-13T03:52:16.735Z,3.93
2023-05-13T03:54:45.592Z,5.33
2023-05-13T03:57:15.022Z,4.60
2023-05-13T03:59:43.325Z,4.87
2023-05-13T04:02:11.656Z,4.57
2023-05-13T04:04:44.667Z,4.77
2023-05-13T04:07:16.134Z,4.87
2023-05-13T04:09:44.083Z,4.70
2023-05-13T04:12:15.876Z,5.23
2023-05-13T04:14:45.419Z,5.27
2023-05-13T04:17:13.445Z,5.70
2023-05-13T04:19:41.613Z,6.10
2023-05-13T04:22:09.632Z,6.97
2023-05-13T04:24:37.530Z,6.70
2023-05-13T04:27:05.978Z,5.20
2023-05-13T04:29:33.981Z,5.00
2023-05-13T04:32:03.360Z,4.93
2023-05-13T04:34:31.757Z,5.37
2023-05-13T04:36:59.817Z,6.00
2023-05-13T04:39:27.800Z,6.37
2023-05-13T04:41:58.136Z,6.37
2023-05-13T04:44:30.680Z,6.87
2023-05-13T04:46:58.917Z,5.47
2023-05-13T04:49:30.916Z,6.23
2023-05-13T04:52:03.680Z,6.37
2023-05-13T04:54:34.761Z,7.43
2023-05-13T04:57:07.559Z,6.00
2023-05-13T04:59:37.120Z,7.00
2023-05-13T05:02:07.750Z,6.87
2023-05-13T05:04:44.928Z,5.97
2023-05-13T05:07:13.501Z,6.83
2023-05-13T05:09:46.909Z,6.80
2023-05-13T05:12:15.795Z,7.20
2023-05-13T05:14:43.803Z,6.83
2023-05-13T05:17:11.843Z,6.73
2023-05-13T05:19:42.225Z,7.50
2023-05-13T05:22:10.197Z,5.80
2023-05-13T05:24:38.131Z,7.13
2023-05-13T05:27:07.158Z,7.20
2023-05-13T05:29:35.288Z,4.20
2023-05-13T05:32:03.888Z,5.15
2023-05-13T05:34:32.341Z,5.72
2023-05-13T05:37:01.624Z,6.55
2023-05-13T05:39:29.897Z,6.40
2023-05-13T05:41:58.240Z,6.90
2023-05-13T05:44:26.122Z,6.43
2023-05-13T05:46:54.532Z,5.20
2023-05-13T05:49:22.648Z,6.15
2023-05-13T05:51:50.608Z,5.78
2023-05-13T05:54:19.922Z,4.47
2023-05-13T05:56:48.068Z,4.80
2023-05-13T05:59:16.093Z,4.68
2023-05-13T06:01:44.170Z,5.15
2023-05-13T06:04:12.233Z,4.78
2023-05-13T06:06:40.732Z,4.88
2023-05-13T06:09:08.832Z,4.85
2023-05-13T06:11:38.163Z,4.10
2023-05-13T06:14:06.107Z,3.55
2023-05-13T06:16:34.374Z,3.35
2023-05-13T06:19:02.422Z,3.20
2023-05-13T06:21:31.887Z,2.80
2023-05-13T06:24:00.203Z,3.30
2023-05-13T06:26:28.255Z,2.70
2023-05-13T06:28:57.724Z,3.30
2023-05-13T06:31:27.494Z,4.28
2023-05-13T06:33:56.040Z,4.45
2023-05-13T06:36:24.757Z,3.95
2023-05-13T06:38:52.698Z,3.60
2023-05-13T06:41:20.760Z,3.13
2023-05-13T06:43:49.075Z,3.33
2023-05-13T06:46:18.435Z,3.83
2023-05-13T06:48:46.447Z,3.10
2023-05-13T06:51:14.735Z,3.67
2023-05-13T06:53:42.769Z,3.10
2023-05-13T06:56:11.373Z,3.03
2023-05-13T06:58:39.426Z,2.83
2023-05-13T07:01:07.667Z,2.80
2023-05-13T07:03:37.800Z,2.87
2023-05-13T07:06:06.108Z,2.83
2023-05-13T07:08:34.035Z,3.10
2023-05-13T07:11:02.035Z,3.00
2023-05-13T07:13:31.021Z,2.70
2023-05-13T07:15:58.964Z,4.95
2023-05-13T07:18:27.071Z,3.67
2023-05-13T07:20:56.951Z,3.75
2023-05-13T07:23:25.170Z,3.83
2023-05-13T07:25:53.246Z,3.00
2023-05-13T07:28:21.246Z,4.20
2023-05-13T07:30:49.284Z,3.65
2023-05-13T07:33:17.306Z,4.22
2023-05-13T07:35:45.385Z,3.60
2023-05-13T07:38:15.028Z,4.05
2023-05-13T07:40:43.255Z,4.00
2023-05-13T07:43:11.844Z,4.50
2023-05-13T07:45:40.279Z,4.70
2023-05-13T07:48:10.053Z,4.97
2023-05-13T07:50:38.531Z,4.70
2023-05-13T07:53:06.734Z,5.57
2023-05-13T07:55:36.184Z,5.70
2023-05-13T07:58:04.061Z,4.20
2023-05-13T08:00:32.408Z,5.68
2023-05-13T08:03:00.460Z,6.38
2023-05-13T08:05:28.497Z,7.18
2023-05-13T08:07:56.506Z,8.13
2023-05-13T08:10:24.493Z,6.20
2023-05-13T08:12:57.714Z,5.43
2023-05-13T08:15:25.882Z,5.53
2023-05-13T08:17:54.722Z,5.55
2023-05-13T08:20:29.627Z,7.00
2023-05-13T08:22:58.378Z,5.45
2023-05-13T08:25:26.604Z,6.05
2023-05-13T08:27:56.019Z,5.40
2023-05-13T08:30:24.245Z,6.10
2023-05-13T08:32:52.651Z,6.20
2023-05-13T08:35:21.877Z,5.88
2023-05-13T08:37:49.988Z,7.70
2023-05-13T08:40:18.676Z,7.57
2023-05-13T08:42:50.307Z,6.40
2023-05-13T08:45:23.521Z,7.38
2023-05-13T08:47:53.733Z,7.15
2023-05-13T08:50:22.438Z,8.32
2023-05-13T08:52:51.674Z,7.00
2023-05-13T08:55:20.448Z,7.22
2023-05-13T08:57:50.130Z,7.60
2023-05-13T09:00:21.558Z,6.75
2023-05-13T09:02:51.019Z,7.97
2023-05-13T09:05:20.263Z,7.03
2023-05-13T09:07:48.455Z,7.82
2023-05-13T09:10:16.702Z,7.15
2023-05-13T09:12:49.852Z,7.32
2023-05-13T09:15:21.043Z,7.43
2023-05-13T09:17:52.542Z,7.35
2023-05-13T09:20:22.228Z,7.32
2023-05-13T09:22:51.434Z,6.68
2023-05-13T09:25:21.546Z,6.70
2023-05-13T09:27:52.030Z,6.97
2023-05-13T09:30:22.767Z,6.95
2023-05-13T09:33:07.281Z,6.68
2023-05-13T09:35:37.083Z,7.07
2023-05-13T09:38:14.668Z,6.70
2023-05-13T09:40:51.974Z,5.65
2023-05-13T09:43:21.884Z,5.60
2023-05-13T09:45:54.477Z,6.00
2023-05-13T09:48:22.906Z,5.78
2023-05-13T09:50:52.369Z,6.68
2023-05-13T09:53:21.287Z,6.40
2023-05-13T09:55:51.525Z,5.90
2023-05-13T09:58:20.426Z,6.07
2023-05-13T10:00:49.344Z,5.78
2023-05-13T10:03:19.123Z,6.93
2023-05-13T10:05:47.535Z,6.28
2023-05-13T10:08:16.178Z,5.35
2023-05-13T10:10:46.292Z,6.00
2023-05-13T10:13:17.402Z,6.55
2023-05-13T10:15:53.130Z,5.60
2023-05-13T10:18:25.015Z,5.75
2023-05-13T10:20:54.189Z,6.70
2023-05-13T10:23:24.329Z,5.75
2023-05-13T10:25:54.957Z,5.40
2023-05-13T10:28:23.424Z,5.57
2023-05-13T10:30:52.687Z,6.55
2023-05-13T10:33:22.861Z,7.00
2023-05-13T10:36:11.796Z,4.90
2023-05-13T10:38:54.498Z,4.90
2023-05-13T10:42:07.930Z,5.38
2023-05-13T10:44:36.819Z,5.70
2023-05-13T10:47:05.112Z,6.60
2023-05-13T10:49:36.531Z,7.22
2023-05-13T10:52:09.506Z,6.88
2023-05-13T10:54:40.550Z,6.68
2023-05-13T10:57:08.924Z,6.45
2023-05-13T10:59:38.756Z,7.03
2023-05-13T11:02:22.654Z,6.30
2023-05-13T11:05:02.798Z,6.45
2023-05-13T11:07:31.009Z,6.30
2023-05-13T11:10:01.200Z,7.03
2023-05-13T11:12:29.302Z,7.88
2023-05-13T11:14:57.542Z,8.23
2023-05-13T11:17:25.999Z,9.18
2023-05-13T11:19:54.445Z,6.93
2023-05-13T11:22:25.095Z,7.32
2023-05-13T11:25:09.169Z,6.93
2023-05-13T11:27:40.723Z,6.70
2023-05-13T11:30:22.613Z,7.05
2023-05-13T11:32:56.590Z,6.93
2023-05-13T11:35:27.158Z,6.32
2023-05-13T11:37:59.807Z,6.30
2023-05-13T11:40:30.651Z,6.72
2023-05-13T11:43:00.019Z,7.57
2023-05-13T11:45:29.304Z,7.40
2023-05-13T11:47:57.663Z,6.85
2023-05-13T11:50:27.662Z,6.65
2023-05-13T11:52:58.308Z,6.70
2023-05-13T11:55:27.378Z,6.78
2023-05-13T11:57:55.878Z,7.28
2023-05-13T12:00:27.461Z,6.47
2023-05-13T12:02:56.505Z,6.85
2023-05-13T12:05:25.355Z,6.35
2023-05-13T12:07:57.498Z,5.65
2023-05-13T12:10:27.220Z,6.00
2023-05-13T12:12:55.502Z,5.80
2023-05-13T12:15:24.248Z,6.25
2023-05-13T12:17:53.369Z,6.43
2023-05-13T12:20:22.654Z,6.40
2023-05-13T12:22:57.008Z,7.53
2023-05-13T12:25:46.731Z,8.13
2023-05-13T12:28:17.517Z,7.00
2023-05-13T12:30:51.747Z,8.05
2023-05-13T12:33:22.156Z,6.68
2023-05-13T12:35:52.142Z,6.13
2023-05-13T12:38:21.769Z,6.55
2023-05-13T12:40:52.514Z,5.70
2023-05-13T12:43:21.539Z,5.70
2023-05-13T12:45:55.520Z,5.40
2023-05-13T12:48:27.067Z,5.97
2023-05-13T12:50:56.546Z,5.65
2023-05-13T12:53:24.601Z,5.60
2023-05-13T12:55:54.057Z,5.05
2023-05-13T12:58:21.982Z,5.65
2023-05-13T13:00:49.995Z,5.35
2023-05-13T13:03:18.164Z,5.40
2023-05-13T13:05:46.854Z,5.20
2023-05-13T13:08:14.888Z,4.72
2023-05-13T13:10:42.860Z,4.88
2023-05-13T13:13:12.222Z,5.47
2023-05-13T13:15:40.557Z,5.60
2023-05-13T13:18:08.966Z,5.80
2023-05-13T13:20:37.731Z,5.78
2023-05-13T13:23:05.765Z,5.57
2023-05-13T13:25:33.753Z,5.30
2023-05-13T13:28:01.998Z,5.50
2023-05-13T13:30:31.993Z,5.32
2023-05-13T13:33:00.120Z,5.32
2023-05-13T13:35:28.764Z,5.60
2023-05-13T13:37:56.703Z,5.70
2023-05-13T13:40:24.914Z,7.15
2023-05-13T13:42:52.932Z,5.50
2023-05-13T13:45:24.185Z,5.32
2023-05-13T13:47:53.556Z,5.68
2023-05-13T13:50:22.042Z,5.88
2023-05-13T13:52:52.393Z,6.35
2023-05-13T13:55:20.803Z,5.80
2023-05-13T13:57:48.852Z,6.13
2023-05-13T14:00:18.096Z,5.10
2023-05-13T14:02:46.162Z,5.20
2023-05-13T14:05:16.063Z,6.22
2023-05-13T14:07:44.169Z,5.90
2023-05-13T14:10:12.242Z,6.10
2023-05-13T14:12:40.289Z,7.20
2023-05-13T14:15:09.422Z,5.13
2023-05-13T14:17:37.477Z,4.97
2023-05-13T14:20:06.530Z,5.18
2023-05-13T14:22:36.192Z,6.18
2023-05-13T14:25:04.243Z,5.03
2023-05-13T14:27:34.097Z,5.10
2023-05-13T14:30:04.489Z,4.50
2023-05-13T14:32:33.002Z,4.82
2023-05-13T14:35:01.072Z,5.35
2023-05-13T14:37:29.000Z,5.07
2023-05-13T14:39:58.607Z,5.53
2023-05-13T14:42:26.673Z,5.60
2023-05-13T14:44:54.674Z,5.70
2023-05-13T14:47:22.587Z,5.78
2023-05-13T14:49:50.656Z,5.10
2023-05-13T14:52:18.661Z,5.35
2023-05-13T14:54:46.677Z,5.90
2023-05-13T14:57:16.149Z,4.45
2023-05-13T14:59:44.107Z,4.82
2023-05-13T15:02:13.985Z,4.78
2023-05-13T15:04:42.056Z,4.45
2023-05-13T15:07:10.195Z,5.10
2023-05-13T15:09:38.218Z,4.22
2023-05-13T15:12:06.971Z,4.20
2023-05-13T15:14:36.759Z,4.90
2023-05-13T15:17:06.170Z,5.68
2023-05-13T15:19:34.570Z,3.78
2023-05-13T15:22:02.574Z,4.30
2023-05-13T15:24:30.584Z,4.45
2023-05-13T15:26:58.505Z,4.57
2023-05-13T15:29:26.437Z,4.00
2023-05-13T15:31:55.857Z,4.32
2023-05-13T15:34:24.172Z,3.80
2023-05-13T15:36:52.114Z,3.97
2023-05-13T15:39:20.389Z,4.03
2023-05-13T15:41:49.280Z,4.38
2023-05-13T15:44:17.258Z,3.45
2023-05-13T15:46:46.733Z,4.10
2023-05-13T15:49:17.740Z,3.35
2023-05-13T15:51:46.046Z,4.00
2023-05-13T15:54:14.278Z,3.55
2023-05-13T15:56:43.518Z,3.60
2023-05-13T15:59:11.622Z,4.25
2023-05-13T16:01:42.032Z,3.63
2023-05-13T16:04:11.138Z,4.00
2023-05-13T16:06:40.580Z,3.80
2023-05-13T16:09:08.715Z,3.77
2023-05-13T16:11:36.674Z,3.80
2023-05-13T16:14:07.538Z,4.07
2023-05-13T16:16:35.672Z,3.50
2023-05-13T16:19:04.122Z,4.27
2023-05-13T16:21:32.565Z,3.30
2023-05-13T16:24:01.905Z,3.40
2023-05-13T16:26:30.410Z,3.37
2023-05-13T16:28:58.403Z,3.73
2023-05-13T16:31:26.466Z,3.50
2023-05-13T16:33:56.155Z,3.60
2023-05-13T16:36:26.872Z,3.63
2023-05-13T16:38:54.816Z,4.00
2023-05-13T16:41:26.852Z,3.80
2023-05-13T16:43:54.864Z,4.30
2023-05-13T16:46:23.438Z,3.57
2023-05-13T16:48:51.563Z,3.87
2023-05-13T16:51:22.147Z,3.87
2023-05-13T16:53:50.135Z,3.90
2023-05-13T16:56:18.222Z,4.37
2023-05-13T16:58:49.010Z,4.40
2023-05-13T17:01:16.998Z,4.07
2023-05-13T17:03:46.054Z,3.93
2023-05-13T17:06:14.217Z,3.63
2023-05-13T17:08:42.219Z,4.30
2023-05-13T17:11:16.093Z,4.43
2023-05-13T17:13:44.248Z,4.90
2023-05-13T17:16:13.551Z,4.40
2023-05-13T17:18:41.839Z,4.20
2023-05-13T17:21:10.594Z,4.30
2023-05-13T17:23:38.845Z,4.10
2023-05-13T17:26:08.054Z,4.50
2023-05-13T17:28:36.283Z,4.00
2023-05-13T17:31:05.106Z,4.70
2023-05-13T17:33:35.493Z,4.20
2023-05-13T17:36:03.585Z,3.97
2023-05-13T17:38:31.605Z,3.40
2023-05-13T17:40:59.552Z,3.40
2023-05-13T17:43:27.575Z,3.70
2023-05-13T17:45:56.602Z,3.70
2023-05-13T17:48:24.686Z,3.70
2023-05-13T17:50:54.176Z,3.70
2023-05-13T17:53:23.443Z,4.20
2023-05-13T17:55:51.812Z,3.80
2023-05-13T17:58:19.828Z,3.67
2023-05-13T18:00:48.324Z,3.63
2023-05-13T18:03:16.344Z,3.80
2023-05-13T18:05:44.495Z,4.30
2023-05-13T18:08:13.853Z,3.77
2023-05-13T18:10:41.859Z,3.80
2023-05-13T18:13:09.977Z,3.80
2023-05-13T18:15:38.145Z,4.13
2023-05-13T18:18:06.351Z,4.17
2023-05-13T18:20:34.865Z,4.00
2023-05-13T18:23:02.853Z,3.70
2023-05-13T18:25:33.561Z,4.10
2023-05-13T18:28:04.282Z,4.10
2023-05-13T18:30:32.615Z,4.17
2023-05-13T18:33:01.077Z,3.50
2023-05-13T18:35:32.728Z,3.57
2023-05-13T18:38:01.118Z,3.63
2023-05-13T18:40:29.143Z,3.53
2023-05-13T18:42:58.597Z,4.20
2023-05-13T18:45:26.968Z,3.73
2023-05-13T18:47:55.069Z,4.33
2023-05-13T18:50:23.388Z,3.93
2023-05-13T18:52:52.890Z,4.00
2023-05-13T18:55:21.075Z,4.50
2023-05-13T18:57:49.146Z,4.57
2023-05-13T19:00:26.071Z,4.03
2023-05-13T19:03:01.598Z,4.37
2023-05-13T19:05:29.855Z,4.43
2023-05-13T19:07:58.131Z,4.20
2023-05-13T19:10:26.230Z,4.90
2023-05-13T19:12:54.173Z,5.07
2023-05-13T19:15:25.218Z,4.83
2023-05-13T19:17:53.864Z,4.90
2023-05-13T19:20:22.060Z,4.70
2023-05-13T19:22:50.292Z,4.37
2023-05-13T19:25:18.312Z,4.50
2023-05-13T19:27:48.158Z,4.87
2023-05-13T19:30:16.269Z,4.10
2023-05-13T19:32:46.794Z,4.30
2023-05-13T19:35:15.110Z,4.30
2023-05-13T19:37:43.183Z,4.60
2023-05-13T19:40:12.096Z,4.30
2023-05-13T19:42:40.482Z,4.37
2023-05-13T19:45:10.758Z,4.57
2023-05-13T19:47:39.599Z,4.90
2023-05-13T19:50:09.878Z,4.50
2023-05-13T19:52:39.296Z,4.93
2023-05-13T19:55:08.363Z,4.63
2023-05-13T19:57:37.255Z,4.50
2023-05-13T20:00:07.727Z,4.03
2023-05-13T20:02:35.713Z,4.17
2023-05-13T20:05:03.956Z,4.40
2023-05-13T20:07:33.586Z,4.10
2023-05-13T20:10:01.560Z,4.17
2023-05-13T20:12:30.132Z,4.10
2023-05-13T20:14:59.404Z,4.07
2023-05-13T20:17:27.632Z,3.93
2023-05-13T20:19:56.491Z,3.97
2023-05-13T20:22:24.601Z,3.67
2023-05-13T20:24:54.471Z,3.83
2023-05-13T20:27:22.600Z,3.90
2023-05-13T20:29:51.464Z,3.60
2023-05-13T20:32:24.818Z,3.80
2023-05-13T20:34:54.736Z,4.00
2023-05-13T20:37:23.928Z,4.00
2023-05-13T20:39:54.144Z,3.47
2023-05-13T20:42:22.915Z,3.57
2023-05-13T20:44:51.085Z,3.73
2023-05-13T20:47:19.200Z,3.80
2023-05-13T20:49:47.400Z,3.50
2023-05-13T20:52:15.523Z,4.13
2023-05-13T20:54:43.834Z,3.80
2023-05-13T20:57:13.499Z,3.97
2023-05-13T20:59:43.976Z,3.60
2023-05-13T21:02:13.362Z,3.83
2023-05-13T21:04:41.475Z,3.80
2023-05-13T21:07:09.815Z,3.70
2023-05-13T21:09:38.199Z,3.97
2023-05-13T21:12:07.149Z,3.80
2023-05-13T21:14:39.370Z,4.00
2023-05-13T21:17:07.957Z,3.80
2023-05-13T21:19:39.902Z,4.13
2023-05-13T21:22:08.121Z,3.93
2023-05-13T21:24:37.353Z,3.63
2023-05-13T21:27:06.048Z,4.27
2023-05-13T21:29:34.234Z,4.17
2023-05-13T21:32:03.927Z,4.13
2023-05-13T21:34:32.432Z,4.37
2023-05-13T21:37:01.990Z,3.83
2023-05-13T21:39:31.386Z,3.87
2023-05-13T21:42:00.968Z,3.80
2023-05-13T21:44:33.322Z,3.93
2023-05-13T21:47:02.308Z,3.73
2023-05-13T21:49:37.587Z,3.63
2023-05-13T21:52:06.004Z,3.97
2023-05-13T21:54:34.702Z,3.70
2023-05-13T21:57:06.370Z,3.97
2023-05-13T21:59:36.770Z,3.70
2023-05-13T22:02:05.198Z,4.20
2023-05-13T22:04:36.469Z,4.30
2023-05-13T22:07:04.842Z,4.37
2023-05-13T22:09:32.831Z,4.10
2023-05-13T22:12:00.956Z,3.97
2023-05-13T22:14:28.956Z,4.07
2023-05-13T22:17:08.544Z,3.90
2023-05-13T22:19:39.682Z,3.87
2023-05-13T22:22:07.680Z,3.70
2023-05-13T22:24:38.211Z,3.73
2023-05-13T22:27:06.588Z,4.10
2023-05-13T22:29:35.793Z,4.03
2023-05-13T22:32:03.900Z,3.90
2023-05-13T22:34:31.989Z,3.23
2023-05-13T22:37:02.683Z,3.60
2023-05-13T22:39:30.693Z,3.80
2023-05-13T22:41:59.780Z,3.77
2023-05-13T22:44:27.830Z,3.47
2023-05-13T22:46:56.851Z,3.60
2023-05-13T22:49:24.939Z,3.67
2023-05-13T22:51:52.930Z,3.77
2023-05-13T22:54:24.043Z,3.90
2023-05-13T22:56:51.998Z,3.97
2023-05-13T22:59:21.389Z,3.80
2023-05-13T23:01:49.427Z,3.60
2023-05-13T23:04:17.556Z,3.77
2023-05-13T23:06:45.560Z,3.63
2023-05-13T23:09:13.494Z,3.90
2023-05-13T23:11:42.864Z,3.40
2023-05-13T23:14:10.816Z,3.80
2023-05-13T23:16:38.825Z,3.30
2023-05-13T23:19:06.954Z,3.70
2023-05-13T23:21:38.053Z,3.87
2023-05-13T23:24:08.949Z,3.70
2023-05-13T23:26:36.846Z,3.73
2023-05-13T23:29:06.251Z,3.87
2023-05-13T23:31:34.398Z,4.13
2023-05-13T23:34:03.229Z,3.93
2023-05-13T23:36:31.159Z,3.77
2023-05-13T23:38:59.034Z,4.13
2023-05-13T23:41:27.040Z,3.70
2023-05-13T23:43:55.083Z,3.73
2023-05-13T23:46:24.617Z,3.80
2023-05-13T23:48:52.655Z,3.67
2023-05-13T23:51:21.005Z,3.70
2023-05-13T23:53:49.061Z,3.90
2023-05-13T23:56:17.059Z,3.77
2023-05-13T23:58:45.173Z,3.90
